createdAt,value
2018-10-12T00:00:37.460Z,55.40
2018-10-12T00:03:06.389Z,55.50
2018-10-12T00:05:34.943Z,55.40
2018-10-12T00:08:03.406Z,55.20
2018-10-12T00:10:32.083Z,55.20
2018-10-12T00:13:01.281Z,55.20
2018-10-12T00:15:30.439Z,55.00
2018-10-12T00:17:59.335Z,55.00
2018-10-12T00:20:27.725Z,55.00
2018-10-12T00:25:23.541Z,54.90
2018-10-12T00:27:52.103Z,54.80
2018-10-12T00:30:20.712Z,54.80
2018-10-12T00:35:15.899Z,54.70
2018-10-12T00:40:11.093Z,54.60
2018-10-12T00:42:39.802Z,54.50
2018-10-12T00:45:08.362Z,54.40
2018-10-12T00:47:37.009Z,54.40
2018-10-12T00:50:05.574Z,54.30
2018-10-12T00:55:01.025Z,54.80
2018-10-12T00:57:29.463Z,54.30
2018-10-12T00:59:58.338Z,54.10
2018-10-12T01:02:27.031Z,54.10
2018-10-12T01:04:55.679Z,54.10
2018-10-12T01:07:24.597Z,54.30
2018-10-12T01:09:53.505Z,54.10
2018-10-12T01:12:33.741Z,53.80
2018-10-12T01:17:29.421Z,53.90
2018-10-12T01:19:58.449Z,53.80
2018-10-12T01:22:28.005Z,53.80
2018-10-12T01:24:57.894Z,54.00
2018-10-12T01:27:26.889Z,54.00
2018-10-12T01:29:55.803Z,53.80
2018-10-12T01:32:29.925Z,53.70
2018-10-12T01:34:58.400Z,53.90
2018-10-12T01:37:27.031Z,53.60
2018-10-12T01:39:56.081Z,53.70
2018-10-12T01:42:24.591Z,53.80
2018-10-12T01:44:52.771Z,53.90
2018-10-12T01:47:21.511Z,53.90
2018-10-12T01:49:50.463Z,53.70
2018-10-12T01:52:19.013Z,53.60
2018-10-12T01:54:47.206Z,53.60
2018-10-12T01:57:16.047Z,53.90
2018-10-12T01:59:45.379Z,53.70
2018-10-12T02:02:14.257Z,53.50
2018-10-12T02:04:43.191Z,53.70
2018-10-12T02:07:12.302Z,53.50
2018-10-12T02:09:41.112Z,53.90
2018-10-12T02:12:09.647Z,53.50
2018-10-12T02:14:38.173Z,53.60
2018-10-12T02:17:06.717Z,53.60
2018-10-12T02:19:35.545Z,53.70
2018-10-12T02:22:04.496Z,53.70
2018-10-12T02:24:33.382Z,53.60
2018-10-12T02:27:02.725Z,53.80
2018-10-12T02:31:58.477Z,53.40
2018-10-12T02:34:27.408Z,53.50
2018-10-12T02:36:56.535Z,54.30
2018-10-12T02:39:25.435Z,53.80
2018-10-12T02:41:54.560Z,53.50
2018-10-12T02:44:22.760Z,53.60
2018-10-12T02:46:51.245Z,53.30
2018-10-12T02:49:20.685Z,53.40
2018-10-12T02:51:49.463Z,53.50
2018-10-12T02:54:18.368Z,53.40
2018-10-12T02:56:47.700Z,53.50
2018-10-12T03:01:43.225Z,53.30
2018-10-12T03:04:12.158Z,53.40
2018-10-12T03:06:41.620Z,53.40
2018-10-12T03:09:11.369Z,53.40
2018-10-12T03:14:06.501Z,53.60
2018-10-12T03:16:36.043Z,53.40
2018-10-12T03:19:04.585Z,53.30
2018-10-12T03:21:33.658Z,53.30
2018-10-12T03:24:02.521Z,53.30
2018-10-12T03:28:58.100Z,53.20
2018-10-12T03:31:26.983Z,53.30
2018-10-12T03:33:55.250Z,53.40
2018-10-12T03:36:23.801Z,53.30
2018-10-12T03:38:52.262Z,53.40
2018-10-12T03:41:21.621Z,53.50
2018-10-12T03:43:50.619Z,53.40
2018-10-12T03:46:19.525Z,53.20
2018-10-12T03:48:48.593Z,53.20
2018-10-12T03:53:44.279Z,53.40
2018-10-12T03:56:13.127Z,53.20
2018-10-12T03:58:42.043Z,53.30
2018-10-12T04:03:37.489Z,53.30
2018-10-12T04:06:06.229Z,53.30
2018-10-12T04:08:35.017Z,53.50
2018-10-12T04:11:03.532Z,53.40
2018-10-12T04:13:32.475Z,53.30
2018-10-12T04:16:01.825Z,53.20
2018-10-12T04:18:30.794Z,53.30
2018-10-12T04:20:59.714Z,53.00
2018-10-12T04:23:28.833Z,53.10
2018-10-12T04:25:57.899Z,53.30
2018-10-12T04:28:26.161Z,53.10
2018-10-12T04:33:21.970Z,53.00
2018-10-12T04:35:50.216Z,53.10
2018-10-12T04:38:19.319Z,53.00
2018-10-12T04:41:06.558Z,53.00
2018-10-12T04:43:35.675Z,53.20
2018-10-12T04:48:31.676Z,52.90
2018-10-12T04:51:00.993Z,52.90
2018-10-12T04:53:29.690Z,52.90
2018-10-12T04:55:58.319Z,53.00
2018-10-12T04:58:26.951Z,53.10
2018-10-12T05:00:55.596Z,52.90
2018-10-12T05:03:24.220Z,53.00
2018-10-12T05:05:52.872Z,52.90
2018-10-12T05:08:21.365Z,52.80
2018-10-12T05:13:17.010Z,52.80
2018-10-12T05:15:45.308Z,52.80
2018-10-12T05:20:41.198Z,53.50
2018-10-12T05:23:10.009Z,53.00
2018-10-12T05:25:38.993Z,53.10
2018-10-12T05:28:07.724Z,53.00
2018-10-12T05:30:36.194Z,52.80
2018-10-12T05:33:05.026Z,52.90
2018-10-12T05:35:33.294Z,52.80
2018-10-12T05:38:02.208Z,52.80
2018-10-12T05:40:30.838Z,53.00
2018-10-12T05:42:59.173Z,52.90
2018-10-12T05:45:28.026Z,53.00
2018-10-12T05:48:06.486Z,52.90
2018-10-12T05:50:35.166Z,53.00
2018-10-12T05:53:04.024Z,52.80
2018-10-12T05:55:33.441Z,52.90
2018-10-12T05:58:02.010Z,53.00
2018-10-12T06:00:31.142Z,52.80
2018-10-12T06:03:00.096Z,52.70
2018-10-12T06:05:29.135Z,52.80
2018-10-12T06:07:58.393Z,52.70
2018-10-12T06:10:27.119Z,52.60
2018-10-12T06:12:55.594Z,53.20
2018-10-12T06:15:25.366Z,53.90
2018-10-12T06:17:53.748Z,54.00
2018-10-12T06:20:22.025Z,54.20
2018-10-12T06:22:50.993Z,54.40
2018-10-12T06:25:19.568Z,54.60
2018-10-12T06:27:48.065Z,54.70
2018-10-12T06:30:16.266Z,54.60
2018-10-12T06:32:44.862Z,54.60
2018-10-12T06:35:13.750Z,54.60
2018-10-12T06:40:09.858Z,54.50
2018-10-12T06:42:38.674Z,54.60
2018-10-12T06:47:34.686Z,54.80
2018-10-12T06:50:03.858Z,54.90
2018-10-12T06:52:32.350Z,55.00
2018-10-12T06:55:01.026Z,55.00
2018-10-12T06:57:29.603Z,55.10
2018-10-12T06:59:58.896Z,55.00
2018-10-12T07:02:27.615Z,54.80
2018-10-12T07:04:56.878Z,54.90
2018-10-12T07:07:25.548Z,54.80
2018-10-12T07:09:54.634Z,54.80
2018-10-12T07:12:22.856Z,54.80
2018-10-12T07:14:51.066Z,54.90
2018-10-12T07:17:20.258Z,54.80
2018-10-12T07:19:48.734Z,54.90
2018-10-12T07:22:17.288Z,54.80
2018-10-12T07:27:12.380Z,54.80
2018-10-12T07:29:41.014Z,54.90
2018-10-12T07:32:09.538Z,54.80
2018-10-12T07:34:38.608Z,54.80
2018-10-12T07:37:06.805Z,54.90
2018-10-12T07:39:35.756Z,55.00
2018-10-12T07:42:04.763Z,55.00
2018-10-12T07:44:33.645Z,55.00
2018-10-12T07:47:02.538Z,55.00
2018-10-12T07:49:30.880Z,55.00
2018-10-12T07:52:00.158Z,55.00
2018-10-12T07:54:28.764Z,55.00
2018-10-12T07:57:01.552Z,55.10
2018-10-12T07:59:30.531Z,55.20
2018-10-12T08:01:59.989Z,55.20
2018-10-12T08:04:28.556Z,55.20
2018-10-12T08:06:57.467Z,55.20
2018-10-12T08:09:26.098Z,55.30
2018-10-12T08:11:54.720Z,55.40
2018-10-12T08:14:22.905Z,55.40
2018-10-12T08:16:51.981Z,55.50
2018-10-12T08:19:20.938Z,55.60
2018-10-12T08:21:49.427Z,55.60
2018-10-12T08:24:18.252Z,55.50
2018-10-12T08:26:47.338Z,55.50
2018-10-12T08:29:16.045Z,55.60
2018-10-12T08:31:44.818Z,55.60
2018-10-12T08:34:13.568Z,55.20
2018-10-12T08:36:42.274Z,55.50
2018-10-12T08:39:12.558Z,55.60
2018-10-12T08:41:41.527Z,55.50
2018-10-12T08:44:10.141Z,55.70
2018-10-12T08:46:38.755Z,55.60
2018-10-12T08:49:07.314Z,55.70
2018-10-12T08:51:35.864Z,55.60
2018-10-12T08:54:04.564Z,55.70
2018-10-12T08:56:33.203Z,55.70
2018-10-12T08:59:02.096Z,55.70
2018-10-12T09:01:31.240Z,56.40
2018-10-12T09:04:00.537Z,55.80
2018-10-12T09:06:28.816Z,55.90
2018-10-12T09:08:57.621Z,56.00
2018-10-12T09:11:26.614Z,56.00
2018-10-12T09:13:55.142Z,56.00
2018-10-12T09:16:24.216Z,56.20
2018-10-12T09:18:52.620Z,56.20
2018-10-12T09:21:21.460Z,56.20
2018-10-12T09:23:49.635Z,56.30
2018-10-12T09:26:18.267Z,56.30
2018-10-12T09:28:46.545Z,56.30
2018-10-12T09:31:15.416Z,56.50
2018-10-12T09:33:44.264Z,56.40
2018-10-12T09:36:12.732Z,56.50
2018-10-12T09:38:41.663Z,56.40
2018-10-12T09:41:09.986Z,57.00
2018-10-12T09:43:38.821Z,58.00
2018-10-12T09:48:34.006Z,58.10
2018-10-12T09:51:02.679Z,58.50
2018-10-12T09:53:31.179Z,58.20
2018-10-12T09:55:59.779Z,58.70
2018-10-12T09:58:28.316Z,58.60
2018-10-12T10:01:01.978Z,58.70
2018-10-12T10:03:36.286Z,58.80
2018-10-12T10:06:05.678Z,59.80
2018-10-12T10:08:34.782Z,59.60
2018-10-12T10:11:03.956Z,59.40
2018-10-12T10:13:35.245Z,59.10
2018-10-12T10:16:06.493Z,59.20
2018-10-12T10:18:35.726Z,59.10
2018-10-12T10:21:06.465Z,59.40
2018-10-12T10:23:35.566Z,59.20
2018-10-12T10:26:06.888Z,59.20
2018-10-12T10:28:37.272Z,59.20
2018-10-12T10:31:05.716Z,59.10
2018-10-12T10:33:34.268Z,59.30
2018-10-12T10:36:03.626Z,59.10
2018-10-12T10:38:34.841Z,59.20
2018-10-12T10:41:03.554Z,59.10
2018-10-12T10:43:34.774Z,59.20
2018-10-12T10:46:04.313Z,59.10
2018-10-12T10:48:32.452Z,59.20
2018-10-12T10:51:02.514Z,59.40
2018-10-12T10:53:31.017Z,59.20
2018-10-12T10:56:00.071Z,59.10
2018-10-12T11:00:56.195Z,59.80
2018-10-12T11:03:25.104Z,59.40
2018-10-12T11:05:53.760Z,59.40
2018-10-12T11:08:21.935Z,59.40
2018-10-12T11:10:50.958Z,59.50
2018-10-12T11:13:19.329Z,59.60
2018-10-12T11:15:48.017Z,59.50
2018-10-12T11:18:16.853Z,59.60
2018-10-12T11:20:45.288Z,59.80
2018-10-12T11:23:14.157Z,60.20
2018-10-12T11:25:43.108Z,60.00
2018-10-12T11:28:11.656Z,60.40
2018-10-12T11:30:40.436Z,60.30
2018-10-12T11:33:09.009Z,60.30
2018-10-12T11:35:37.494Z,60.50
2018-10-12T11:38:06.163Z,60.60
2018-10-12T11:40:35.514Z,60.40
2018-10-12T11:43:15.104Z,60.60
2018-10-12T11:45:43.812Z,61.00
2018-10-12T11:48:12.362Z,60.90
2018-10-12T11:50:41.186Z,61.40
2018-10-12T11:53:10.840Z,61.00
2018-10-12T11:55:39.979Z,61.10
2018-10-12T11:58:10.302Z,60.90
2018-10-12T12:00:39.392Z,60.70
2018-10-12T12:03:08.278Z,60.70
2018-10-12T12:05:36.853Z,60.90
2018-10-12T12:08:05.356Z,61.20
2018-10-12T12:10:33.823Z,61.30
2018-10-12T12:13:02.342Z,61.40
2018-10-12T12:15:31.417Z,61.40
2018-10-12T12:18:00.369Z,61.40
2018-10-12T12:20:28.742Z,61.40
2018-10-12T12:22:57.198Z,61.20
2018-10-12T12:25:26.004Z,61.40
2018-10-12T12:27:55.250Z,61.40
2018-10-12T12:30:24.214Z,61.30
2018-10-12T12:32:52.841Z,61.40
2018-10-12T12:37:48.249Z,61.20
2018-10-12T12:40:16.762Z,61.20
2018-10-12T12:45:12.321Z,61.50
2018-10-12T12:47:41.035Z,61.00
2018-10-12T12:50:09.726Z,61.00
2018-10-12T12:52:38.720Z,61.40
2018-10-12T12:55:07.707Z,61.20
2018-10-12T12:57:36.214Z,60.80
2018-10-12T13:00:04.981Z,61.10
2018-10-12T13:02:33.196Z,62.00
2018-10-12T13:05:01.810Z,61.20
2018-10-12T13:07:30.676Z,61.10
2018-10-12T13:09:59.275Z,61.30
2018-10-12T13:14:54.842Z,61.40
2018-10-12T13:17:23.308Z,61.20
2018-10-12T13:19:52.372Z,61.10
2018-10-12T13:22:20.546Z,61.00
2018-10-12T13:24:50.248Z,60.90
2018-10-12T13:27:19.122Z,61.00
2018-10-12T13:29:47.771Z,61.00
2018-10-12T13:32:16.967Z,61.00
2018-10-12T13:34:46.024Z,60.90
2018-10-12T13:37:14.648Z,60.80
2018-10-12T13:39:43.347Z,60.70
2018-10-12T13:42:12.187Z,60.90
2018-10-12T13:44:41.126Z,61.90
2018-10-12T13:47:10.001Z,61.10
2018-10-12T13:49:39.399Z,61.20
2018-10-12T13:52:08.373Z,61.20
2018-10-12T13:54:36.955Z,61.00
2018-10-12T13:57:05.675Z,61.30
2018-10-12T13:59:34.239Z,61.30
2018-10-12T14:02:03.236Z,61.30
2018-10-12T14:04:32.447Z,61.50
2018-10-12T14:07:01.076Z,61.40
2018-10-12T14:09:29.697Z,61.70
2018-10-12T14:11:58.574Z,61.40
2018-10-12T14:14:27.791Z,61.50
2018-10-12T14:16:56.659Z,61.60
2018-10-12T14:19:25.412Z,61.60
2018-10-12T14:21:53.595Z,61.50
2018-10-12T14:24:22.277Z,61.20
2018-10-12T14:26:51.167Z,61.10
2018-10-12T14:29:20.045Z,61.20
2018-10-12T14:31:49.455Z,61.40
2018-10-12T14:34:17.977Z,61.30
2018-10-12T14:36:46.583Z,61.50
2018-10-12T14:39:14.801Z,61.20
2018-10-12T14:41:43.673Z,61.70
2018-10-12T14:44:12.316Z,61.50
2018-10-12T14:46:40.800Z,61.40
2018-10-12T14:49:09.890Z,61.40
2018-10-12T14:51:38.885Z,61.40
2018-10-12T14:54:07.734Z,61.80
2018-10-12T14:56:36.439Z,62.50
2018-10-12T14:59:05.539Z,62.10
2018-10-12T15:01:34.201Z,62.40
2018-10-12T15:04:03.570Z,62.80
2018-10-12T15:06:32.505Z,63.00
2018-10-12T15:09:01.532Z,62.70
2018-10-12T15:11:30.951Z,62.60
2018-10-12T15:14:00.117Z,63.50
2018-10-12T15:16:28.659Z,63.40
2018-10-12T15:18:57.102Z,62.60
2018-10-12T15:23:52.667Z,62.70
2018-10-12T15:26:21.699Z,62.60
2018-10-12T15:28:50.589Z,62.50
2018-10-12T15:31:20.137Z,62.70
2018-10-12T15:33:48.677Z,62.30
2018-10-12T15:36:16.912Z,62.60
2018-10-12T15:38:45.236Z,62.30
2018-10-12T15:41:14.077Z,62.70
2018-10-12T15:43:42.732Z,62.60
2018-10-12T15:46:10.951Z,62.80
2018-10-12T15:48:39.498Z,62.70
2018-10-12T15:51:07.959Z,62.70
2018-10-12T15:53:36.472Z,62.50
2018-10-12T15:56:04.925Z,62.80
2018-10-12T15:58:33.462Z,62.70
2018-10-12T16:01:01.952Z,62.60
2018-10-12T16:03:30.523Z,62.90
2018-10-12T16:05:59.190Z,63.10
2018-10-12T16:08:27.668Z,63.00
2018-10-12T16:10:56.312Z,63.00
2018-10-12T16:13:24.734Z,63.00
2018-10-12T16:15:53.005Z,63.10
2018-10-12T16:18:22.408Z,63.20
2018-10-12T16:20:51.442Z,63.20
2018-10-12T16:23:20.323Z,62.90
2018-10-12T16:26:21.871Z,63.20
2018-10-12T16:28:50.636Z,63.20
2018-10-12T16:31:19.373Z,63.30
2018-10-12T16:33:48.611Z,63.40
2018-10-12T16:36:17.239Z,63.30
2018-10-12T16:38:45.927Z,63.30
2018-10-12T16:41:15.289Z,63.40
2018-10-12T16:43:44.234Z,63.50
2018-10-12T16:46:12.718Z,63.40
2018-10-12T16:48:40.938Z,63.40
2018-10-12T16:51:09.863Z,63.40
2018-10-12T16:53:38.085Z,63.40
2018-10-12T16:56:06.400Z,63.60
2018-10-12T16:58:35.105Z,63.50
2018-10-12T17:01:03.648Z,63.10
2018-10-12T17:03:32.230Z,63.20
2018-10-12T17:06:01.250Z,63.50
2018-10-12T17:10:56.784Z,63.50
2018-10-12T17:13:25.753Z,63.30
2018-10-12T17:15:53.969Z,63.10
2018-10-12T17:18:22.538Z,63.50
2018-10-12T17:20:51.109Z,63.90
2018-10-12T17:23:20.025Z,63.70
2018-10-12T17:25:48.938Z,63.70
2018-10-12T17:28:17.970Z,63.80
2018-10-12T17:30:46.447Z,63.80
2018-10-12T17:33:14.654Z,64.10
2018-10-12T17:35:43.542Z,64.30
2018-10-12T17:38:11.757Z,63.80
2018-10-12T17:40:40.795Z,63.80
2018-10-12T17:43:09.433Z,63.80
2018-10-12T17:45:38.493Z,63.80
2018-10-12T17:48:06.785Z,63.70
2018-10-12T17:50:35.721Z,63.70
2018-10-12T17:53:04.391Z,63.40
2018-10-12T17:55:33.029Z,63.60
2018-10-12T17:58:01.931Z,64.00
2018-10-12T18:00:30.591Z,64.60
2018-10-12T18:02:59.327Z,63.70
2018-10-12T18:07:56.300Z,63.90
2018-10-12T18:10:24.497Z,64.80
2018-10-12T18:12:52.655Z,64.10
2018-10-12T18:15:20.868Z,64.80
2018-10-12T18:17:49.414Z,64.50
2018-10-12T18:20:18.070Z,64.10
2018-10-12T18:22:46.567Z,64.50
2018-10-12T18:25:15.154Z,65.60
2018-10-12T18:27:44.172Z,65.00
2018-10-12T18:30:12.371Z,64.80
2018-10-12T18:32:41.258Z,64.50
2018-10-12T18:35:09.552Z,64.80
2018-10-12T18:37:37.752Z,65.00
2018-10-12T18:40:05.938Z,65.50
2018-10-12T18:42:34.141Z,64.60
2018-10-12T18:45:03.232Z,64.80
2018-10-12T18:47:32.139Z,65.40
2018-10-12T18:50:00.404Z,65.00
2018-10-12T18:52:28.952Z,65.20
2018-10-12T18:54:57.610Z,65.30
2018-10-12T18:57:25.826Z,65.30
2018-10-12T18:59:54.410Z,65.20
2018-10-12T19:02:23.270Z,65.00
2018-10-12T19:04:51.901Z,65.10
2018-10-12T19:07:20.542Z,65.20
2018-10-12T19:09:49.165Z,65.00
2018-10-12T19:12:17.710Z,65.10
2018-10-12T19:14:46.418Z,65.00
2018-10-12T19:17:15.295Z,64.90
2018-10-12T19:19:44.036Z,65.00
2018-10-12T19:22:12.344Z,64.90
2018-10-12T19:24:41.497Z,64.70
2018-10-12T19:27:10.154Z,64.70
2018-10-12T19:29:39.077Z,64.60
2018-10-12T19:32:07.841Z,64.60
2018-10-12T19:34:36.791Z,64.30
2018-10-12T19:37:05.207Z,64.40
2018-10-12T19:39:33.543Z,64.60
2018-10-12T19:42:02.447Z,64.50
2018-10-12T19:44:31.330Z,64.40
2018-10-12T19:47:00.580Z,64.30
2018-10-12T19:49:28.902Z,64.30
2018-10-12T19:51:57.649Z,64.40
2018-10-12T19:54:26.487Z,64.10
2018-10-12T19:56:55.221Z,64.20
2018-10-12T19:59:23.811Z,64.10
2018-10-12T20:01:52.661Z,64.10
2018-10-12T20:04:21.659Z,64.00
2018-10-12T20:06:50.378Z,64.00
2018-10-12T20:09:19.183Z,63.90
2018-10-12T20:11:47.928Z,63.90
2018-10-12T20:14:16.528Z,63.80
2018-10-12T20:16:44.822Z,63.70
2018-10-12T20:19:13.490Z,63.60
2018-10-12T20:21:41.726Z,63.70
2018-10-12T20:24:10.838Z,63.60
2018-10-12T20:26:39.964Z,63.50
2018-10-12T20:29:08.500Z,63.40
2018-10-12T20:31:36.944Z,63.40
2018-10-12T20:34:05.295Z,63.30
2018-10-12T20:36:33.851Z,63.30
2018-10-12T20:39:02.583Z,63.30
2018-10-12T20:41:31.950Z,63.10
2018-10-12T20:44:00.263Z,63.10
2018-10-12T20:46:28.534Z,63.00
2018-10-12T20:48:56.754Z,63.00
2018-10-12T20:51:25.744Z,62.80
2018-10-12T20:53:53.949Z,62.80
2018-10-12T20:56:23.024Z,62.80
2018-10-12T20:58:51.966Z,62.80
2018-10-12T21:01:20.216Z,62.70
2018-10-12T21:03:48.704Z,62.60
2018-10-12T21:06:16.926Z,62.70
2018-10-12T21:08:45.518Z,62.50
2018-10-12T21:11:14.416Z,62.50
2018-10-12T21:13:42.859Z,62.50
2018-10-12T21:16:11.673Z,62.40
2018-10-12T21:18:40.172Z,62.40
2018-10-12T21:21:09.183Z,62.50
2018-10-12T21:23:37.383Z,62.40
2018-10-12T21:26:06.068Z,62.50
2018-10-12T21:28:34.242Z,62.40
2018-10-12T21:31:03.085Z,62.40
2018-10-12T21:33:31.270Z,62.40
2018-10-12T21:36:00.062Z,62.40
2018-10-12T21:38:29.037Z,62.40
2018-10-12T21:40:57.223Z,62.40
2018-10-12T21:43:26.245Z,62.40
2018-10-12T21:45:54.464Z,62.40
2018-10-12T21:48:22.699Z,62.40
2018-10-12T21:50:51.231Z,62.40
2018-10-12T21:53:19.818Z,62.30
2018-10-12T21:55:48.390Z,62.30
2018-10-12T21:58:17.449Z,62.30
2018-10-12T22:00:49.910Z,62.20
2018-10-12T22:03:18.649Z,62.20
2018-10-12T22:05:47.261Z,62.20
2018-10-12T22:08:21.534Z,62.20
2018-10-12T22:10:49.720Z,62.10
2018-10-12T22:13:18.192Z,62.10
2018-10-12T22:15:46.373Z,62.10
2018-10-12T22:18:15.056Z,62.10
2018-10-12T22:20:43.543Z,62.00
2018-10-12T22:23:11.711Z,62.00
2018-10-12T22:25:40.391Z,62.00
2018-10-12T22:28:08.870Z,62.00
2018-10-12T22:30:37.559Z,62.00
2018-10-12T22:33:05.903Z,61.90
2018-10-12T22:35:34.068Z,62.00
2018-10-12T22:38:02.773Z,62.00
2018-10-12T22:40:31.453Z,61.90
2018-10-12T22:42:59.625Z,61.90
2018-10-12T22:45:27.792Z,61.90
2018-10-12T22:47:56.489Z,61.90
2018-10-12T22:50:24.650Z,61.90
2018-10-12T22:52:52.889Z,61.80
2018-10-12T22:55:21.077Z,61.80
2018-10-12T22:57:53.594Z,61.70
2018-10-12T23:00:22.231Z,61.70
2018-10-12T23:02:50.387Z,61.80
2018-10-12T23:05:18.796Z,61.70
2018-10-12T23:07:47.083Z,61.70
2018-10-12T23:10:15.281Z,61.70
2018-10-12T23:12:43.543Z,61.60
2018-10-12T23:15:11.700Z,61.60
2018-10-12T23:17:40.329Z,61.60
2018-10-12T23:20:09.183Z,61.60
2018-10-12T23:22:37.454Z,61.60
2018-10-12T23:25:05.628Z,61.50
2018-10-12T23:27:33.941Z,61.50
2018-10-12T23:30:02.897Z,61.40
2018-10-12T23:32:31.794Z,61.40
2018-10-12T23:35:00.407Z,61.50
2018-10-12T23:37:29.273Z,61.40
2018-10-12T23:39:57.483Z,61.40
2018-10-12T23:42:25.679Z,61.40
2018-10-12T23:44:54.286Z,61.40
2018-10-12T23:47:22.745Z,61.30
2018-10-12T23:49:50.969Z,61.30
2018-10-12T23:52:19.145Z,61.40
2018-10-12T23:54:47.870Z,61.30
2018-10-12T23:57:16.285Z,61.30
2018-10-12T23:59:44.767Z,61.30
